Terminal Aerodrome Forecast
Issued by NWS Buffalo, NY

Home | Current Version | Previous Version | Text Only | Print | Product List | Glossary On
Versions: 1 2 3 4 5 6 7 8 9 10 11 12 13 14 15 16 17 18 19 20 21 22 23 24 25 26 27 28 29 30 31 32 33
172
FTUS41 KBUF 270706 AAA
TAFBUF
TAF AMD
KBUF 270706Z 2707/2806 23006KT P6SM SCT004 BKN035
      TEMPO 2709/2713 BKN004
     FM271500 27004KT P6SM BKN035
     FM271800 34006KT P6SM BKN035
     FM272200 36004KT P6SM SCT050
     FM280300 VRB03KT P6SM SCT250=

USA.gov is the U.S. government's official web portal to all federal, state and local government web resources and services.